Allegany Spring, Virginia
Current Conditions -  °F | °C
As of 8:55 PM on Friday 21 Nov 2014 (Local Time) from KBCB Reporting Station
Clear Clear  
Wind Chill: 25°   Ceiling: Unl
Heat Index: 25°   Visibility: 10mi
Dew Point: 12°   Wind: 0mph
Humidity: 59%   Direction: NA
Pressure: 30.45"   Gusts: NA
Location:  37.1336°N, 80.2545°W
Report Text: KBCB 220155Z AUTO 00000KT 10SM CLR M04/M11 A3045 RMK AO2
Loading
Personal Weather Stations






























Interactive Weather Map New forecast layout! Learn more

10-Day Weather Forecast

Advertisements
Track Severe Weather on mobile